createdAt,value
2022-08-12T11:34:06.569Z,5.17
2022-08-12T11:36:40.666Z,5.03
2022-08-12T11:39:11.375Z,4.97
2022-08-12T11:41:40.827Z,4.80
2022-08-12T11:44:36.574Z,4.37
2022-08-12T11:46:59.704Z,4.80
2022-08-12T11:49:32.239Z,5.20
2022-08-12T11:52:01.973Z,4.70
2022-08-12T11:54:30.521Z,5.07
2022-08-12T11:57:00.309Z,4.50
2022-08-12T12:02:20.807Z,4.60
2022-08-12T12:04:53.111Z,4.63
2022-08-12T12:08:36.187Z,5.00
2022-08-12T12:10:13.472Z,4.67
2022-08-12T12:12:49.923Z,4.90
2022-08-12T12:15:25.125Z,4.67
2022-08-12T12:18:06.852Z,4.60
2022-08-12T12:20:37.073Z,4.70
2022-08-12T12:23:10.533Z,4.60
2022-08-12T12:26:07.486Z,5.30
2022-08-12T12:28:39.654Z,4.60
2022-08-12T12:31:14.981Z,5.00
2022-08-12T12:33:58.057Z,4.80
2022-08-12T12:36:30.111Z,4.67
2022-08-12T12:38:59.945Z,4.47
2022-08-12T12:42:41.719Z,4.63
2022-08-12T12:44:25.893Z,4.63
2022-08-12T12:47:28.695Z,4.60
2022-08-12T12:49:53.563Z,5.23
2022-08-12T12:52:26.758Z,5.00
2022-08-12T12:54:58.518Z,4.90
2022-08-12T12:57:59.085Z,4.73
2022-08-12T13:00:16.015Z,4.70
2022-08-12T13:02:53.642Z,4.90
2022-08-12T13:05:27.908Z,4.83
2022-08-12T13:08:00.722Z,4.93
2022-08-12T13:10:36.899Z,5.30
2022-08-12T13:14:07.356Z,5.07
2022-08-12T13:15:59.414Z,4.70
2022-08-12T13:18:31.537Z,5.00
2022-08-12T13:20:59.946Z,5.00
2022-08-12T13:23:36.150Z,5.10
2022-08-12T13:26:14.225Z,5.30
2022-08-12T13:28:49.614Z,5.17
2022-08-12T13:31:25.114Z,5.50
2022-08-12T13:34:32.795Z,5.57
2022-08-12T13:36:45.319Z,5.50
2022-08-12T13:39:16.976Z,6.93
2022-08-12T13:41:45.144Z,5.67
2022-08-12T13:44:13.319Z,5.40
2022-08-12T13:46:42.190Z,6.20
2022-08-12T13:49:17.593Z,6.00
2022-08-12T13:52:01.968Z,6.03
2022-08-12T13:54:33.858Z,6.07
2022-08-12T13:57:02.040Z,5.70
2022-08-12T13:59:30.883Z,5.83
2022-08-12T14:02:17.461Z,6.10
2022-08-12T14:04:45.707Z,5.97
2022-08-12T14:07:25.836Z,5.67
2022-08-12T14:10:16.472Z,6.07
2022-08-12T14:12:53.945Z,6.00
2022-08-12T14:15:36.702Z,6.00
2022-08-12T14:18:14.227Z,5.70
2022-08-12T14:20:47.543Z,6.33
2022-08-12T14:24:04.389Z,5.63
2022-08-12T14:26:12.087Z,5.07
2022-08-12T14:28:45.437Z,5.40
2022-08-12T14:31:32.075Z,5.47
2022-08-12T14:34:04.998Z,5.33
2022-08-12T14:36:34.187Z,5.20
2022-08-12T14:39:06.075Z,5.27
2022-08-12T14:41:48.550Z,5.03
2022-08-12T14:44:57.489Z,4.90
2022-08-12T14:47:13.829Z,4.97
2022-08-12T14:50:34.391Z,4.53
2022-08-12T14:53:26.744Z,4.63
2022-08-12T14:58:10.675Z,4.73
2022-08-12T15:00:57.496Z,4.33
2022-08-12T15:03:52.130Z,4.30
2022-08-12T15:06:44.184Z,4.60
2022-08-12T15:09:12.619Z,4.80
2022-08-12T15:11:55.621Z,4.80
2022-08-12T15:14:35.430Z,4.80
2022-08-12T15:17:09.181Z,5.10
2022-08-12T15:20:11.590Z,4.90
2022-08-12T15:22:38.264Z,4.60
2022-08-12T15:25:20.390Z,4.80
2022-08-12T15:28:04.600Z,4.47
2022-08-12T15:30:39.841Z,4.77
2022-08-12T15:33:12.927Z,4.57
2022-08-12T15:35:51.990Z,4.77
2022-08-12T15:38:24.880Z,4.40
2022-08-12T15:40:55.695Z,4.17
2022-08-12T15:44:16.276Z,3.97
2022-08-12T15:46:21.335Z,4.40
2022-08-12T15:48:54.945Z,3.90
2022-08-12T15:51:58.506Z,4.00
2022-08-12T15:54:35.076Z,3.63
2022-08-12T15:57:08.379Z,3.83
2022-08-12T15:59:51.336Z,3.73
2022-08-12T16:02:29.540Z,4.03
2022-08-12T16:04:58.438Z,4.30
2022-08-12T16:07:36.922Z,4.40
2022-08-12T16:10:08.658Z,4.20
2022-08-12T16:12:43.214Z,4.10
2022-08-12T16:15:15.867Z,4.10
2022-08-12T16:18:17.913Z,3.93
2022-08-12T16:20:39.599Z,3.47
2022-08-12T16:23:36.060Z,3.67
2022-08-12T16:26:06.350Z,4.00
2022-08-12T16:28:44.349Z,4.40
2022-08-12T16:31:23.442Z,4.33
2022-08-12T16:34:00.408Z,3.80
2022-08-12T16:36:30.038Z,3.57
2022-08-12T16:39:01.769Z,3.50
2022-08-12T16:41:33.531Z,3.93
2022-08-12T16:44:08.259Z,3.80
2022-08-12T16:46:37.600Z,3.80
2022-08-12T16:49:09.071Z,3.73
2022-08-12T16:51:45.926Z,4.27
2022-08-12T16:54:16.191Z,4.20
2022-08-12T16:56:55.526Z,4.33
2022-08-12T16:59:52.777Z,4.10
2022-08-12T17:02:31.530Z,4.03
2022-08-12T17:05:04.678Z,4.50
2022-08-12T17:07:37.938Z,3.80
2022-08-12T17:10:07.940Z,4.00
2022-08-12T17:12:37.680Z,3.63
2022-08-12T17:15:21.277Z,3.40
2022-08-12T17:18:39.156Z,3.70
2022-08-12T17:20:48.420Z,3.77
2022-08-12T17:23:19.428Z,3.60
2022-08-12T17:25:50.468Z,4.33
2022-08-12T17:28:19.718Z,3.33
2022-08-12T17:30:59.616Z,3.60
2022-08-12T17:33:33.397Z,3.43
2022-08-12T17:36:05.460Z,3.40
2022-08-12T17:38:35.030Z,3.20
2022-08-12T17:41:22.554Z,3.53
2022-08-12T17:43:56.839Z,3.10
2022-08-12T17:46:33.168Z,3.50
2022-08-12T17:49:18.853Z,3.43
2022-08-12T17:52:02.460Z,3.30
2022-08-12T17:54:32.789Z,3.67
2022-08-12T17:57:02.492Z,3.67
2022-08-12T17:59:48.598Z,3.40
2022-08-12T18:02:22.572Z,3.37
2022-08-12T18:05:05.431Z,3.47
2022-08-12T18:07:39.868Z,3.10
2022-08-12T18:10:09.533Z,3.20
2022-08-12T18:12:42.199Z,3.40
2022-08-12T18:15:26.888Z,3.23
2022-08-12T18:18:16.761Z,3.33
2022-08-12T18:20:46.385Z,3.00
2022-08-12T18:23:15.774Z,3.27
2022-08-12T18:26:14.335Z,3.10
2022-08-12T18:28:48.346Z,3.17
2022-08-12T18:31:18.496Z,2.90
2022-08-12T18:33:47.946Z,3.20
2022-08-12T18:36:22.719Z,2.97
2022-08-12T18:38:56.232Z,2.80
2022-08-12T18:41:34.123Z,2.90
2022-08-12T18:44:05.180Z,2.80
2022-08-12T18:46:54.407Z,3.03
2022-08-12T18:49:30.785Z,2.80
2022-08-12T18:52:05.377Z,2.73
2022-08-12T18:54:41.360Z,2.80
2022-08-12T18:57:45.716Z,2.87
2022-08-12T19:00:09.768Z,2.80
2022-08-12T19:02:40.427Z,3.10
2022-08-12T19:05:10.801Z,2.77
2022-08-12T19:08:00.363Z,2.83
2022-08-12T19:10:32.618Z,2.73
2022-08-12T19:13:23.114Z,2.70
2022-08-12T19:15:54.484Z,2.87
2022-08-12T19:18:29.479Z,2.90
2022-08-12T19:20:59.050Z,2.87
2022-08-12T19:23:35.007Z,2.83
2022-08-12T19:26:05.280Z,3.00
2022-08-12T19:28:39.119Z,3.13
2022-08-12T19:31:55.382Z,3.07
2022-08-12T19:34:47.104Z,3.17
2022-08-12T19:37:20.096Z,3.07
2022-08-12T19:40:10.221Z,3.27
2022-08-12T19:42:42.662Z,3.77
2022-08-12T19:45:15.683Z,3.57
2022-08-12T19:47:45.986Z,3.50
2022-08-12T19:50:20.265Z,3.43
2022-08-12T19:52:51.047Z,3.63
2022-08-12T19:55:21.827Z,3.33
2022-08-12T19:58:01.345Z,3.40
2022-08-12T20:00:34.943Z,3.03
2022-08-12T20:03:07.708Z,3.40
2022-08-12T20:06:06.335Z,3.53
2022-08-12T20:08:33.107Z,3.40
2022-08-12T20:12:11.962Z,3.77
2022-08-12T20:14:00.634Z,3.90
2022-08-12T20:19:53.227Z,3.53
2022-08-12T20:22:24.047Z,3.40
2022-08-12T20:25:01.611Z,3.53
2022-08-12T20:28:02.730Z,3.40
2022-08-12T20:30:37.922Z,4.00
2022-08-12T20:33:16.767Z,3.70
2022-08-12T20:36:13.837Z,3.60
2022-08-12T20:38:39.745Z,3.37
2022-08-12T20:41:17.616Z,3.13
2022-08-12T20:43:49.599Z,3.60
2022-08-12T20:46:20.255Z,3.20
2022-08-12T20:48:54.487Z,3.47
2022-08-12T20:51:27.694Z,3.27
2022-08-12T20:53:58.821Z,3.10
2022-08-12T20:56:32.972Z,3.27
2022-08-12T20:59:04.989Z,3.33
2022-08-12T21:01:46.289Z,3.80
2022-08-12T21:04:35.186Z,3.57
2022-08-12T21:07:09.396Z,3.50
2022-08-12T21:09:41.986Z,3.40
2022-08-12T21:12:24.693Z,4.10
2022-08-12T21:15:23.197Z,3.90
2022-08-12T21:18:09.623Z,4.13
2022-08-12T21:20:38.910Z,4.17
2022-08-12T21:23:09.628Z,3.83
2022-08-12T21:25:44.536Z,4.13
2022-08-12T21:28:14.001Z,4.40
2022-08-12T21:31:11.526Z,4.27
2022-08-12T21:33:58.278Z,4.30
2022-08-12T21:36:22.778Z,3.80
2022-08-12T21:39:01.489Z,3.93
2022-08-12T21:41:51.249Z,4.20
2022-08-12T21:44:24.257Z,4.20
2022-08-12T21:47:21.332Z,4.23
2022-08-12T21:50:03.074Z,4.57
2022-08-12T21:52:49.260Z,4.30
2022-08-12T21:55:20.388Z,4.07
2022-08-12T21:57:54.640Z,4.10
2022-08-12T22:00:34.799Z,4.20
2022-08-12T22:04:01.699Z,4.20
2022-08-12T22:06:30.984Z,4.20
2022-08-12T22:09:17.206Z,4.07
2022-08-12T22:11:49.261Z,4.10
2022-08-12T22:14:26.931Z,4.40
2022-08-12T22:16:56.632Z,4.10
2022-08-12T22:19:24.680Z,4.50
2022-08-12T22:21:58.763Z,4.30
2022-08-12T22:24:31.869Z,4.60
2022-08-12T22:27:18.374Z,4.50
2022-08-12T22:30:06.175Z,4.13
2022-08-12T22:32:36.575Z,4.20
2022-08-12T22:35:23.144Z,4.00
2022-08-12T22:37:55.898Z,4.07
2022-08-12T22:40:24.276Z,4.47
2022-08-12T22:43:15.305Z,4.30
2022-08-12T22:46:01.867Z,4.47
2022-08-12T22:48:30.594Z,4.90
2022-08-12T22:50:59.333Z,4.23
2022-08-12T22:53:35.900Z,4.80
2022-08-12T22:56:07.163Z,4.17
2022-08-12T22:58:36.711Z,4.60
2022-08-12T23:01:10.903Z,4.43
2022-08-12T23:03:49.620Z,4.57
2022-08-12T23:06:20.231Z,4.73
2022-08-12T23:08:49.861Z,5.20
2022-08-12T23:11:23.771Z,4.73
2022-08-12T23:13:56.397Z,4.80
2022-08-12T23:16:31.881Z,5.10
2022-08-12T23:19:10.392Z,4.83
2022-08-12T23:22:05.064Z,4.90
2022-08-12T23:24:54.031Z,5.00
2022-08-12T23:27:50.242Z,4.77
2022-08-12T23:30:25.189Z,4.67
2022-08-12T23:33:00.615Z,4.47
2022-08-12T23:35:46.022Z,4.50
2022-08-12T23:38:30.843Z,4.50
2022-08-12T23:41:03.680Z,4.33
2022-08-12T23:43:39.729Z,4.43
2022-08-12T23:46:10.148Z,4.87
2022-08-12T23:48:38.971Z,5.07
2022-08-12T23:51:22.534Z,5.00
2022-08-12T23:53:54.974Z,5.00
2022-08-12T23:56:25.332Z,5.03
2022-08-12T23:58:57.383Z,4.60
